createdAt,value
2023-05-02T00:01:44.276Z,24.40
2023-05-02T00:04:12.001Z,26.60
2023-05-02T00:06:39.872Z,21.60
2023-05-02T00:09:07.606Z,22.50
2023-05-02T00:11:35.451Z,20.80
2023-05-02T00:14:03.178Z,16.70
2023-05-02T00:16:30.909Z,14.20
2023-05-02T00:18:58.761Z,17.20
2023-05-02T00:21:29.293Z,19.10
2023-05-02T00:24:00.233Z,22.30
2023-05-02T00:26:28.904Z,20.30
2023-05-02T00:28:56.538Z,17.60
2023-05-02T00:31:24.281Z,19.50
2023-05-02T00:33:51.997Z,14.00
2023-05-02T00:36:19.877Z,16.80
2023-05-02T00:38:47.747Z,19.70
2023-05-02T00:41:17.249Z,22.30
2023-05-02T00:43:45.095Z,16.10
2023-05-02T00:46:13.500Z,18.90
2023-05-02T00:48:41.308Z,16.40
2023-05-02T00:51:12.193Z,18.80
2023-05-02T00:53:40.591Z,16.60
2023-05-02T00:56:08.805Z,14.10
2023-05-02T00:58:38.223Z,18.90
2023-05-02T01:01:18.256Z,16.50
2023-05-02T01:03:49.190Z,18.00
2023-05-02T01:06:39.636Z,17.90
2023-05-02T01:09:31.435Z,17.20
2023-05-02T01:14:34.965Z,17.30
2023-05-02T01:17:06.549Z,19.50
2023-05-02T01:19:36.744Z,18.80
2023-05-02T01:22:06.190Z,18.70
2023-05-02T01:24:55.527Z,18.40
2023-05-02T01:27:43.388Z,16.60
2023-05-02T01:30:11.105Z,14.90
2023-05-02T01:32:39.710Z,17.40
2023-05-02T01:35:07.939Z,14.30
2023-05-02T01:37:37.106Z,13.80
2023-05-02T01:40:05.329Z,21.50
2023-05-02T01:42:33.070Z,21.70
2023-05-02T01:45:00.723Z,21.50
2023-05-02T01:47:29.389Z,19.70
2023-05-02T01:49:58.000Z,18.70
2023-05-02T01:52:25.948Z,14.70
2023-05-02T01:54:53.691Z,16.10
2023-05-02T01:57:21.287Z,15.60
2023-05-02T01:59:48.918Z,16.10
2023-05-02T02:02:16.706Z,15.90
2023-05-02T02:04:44.451Z,15.00
2023-05-02T02:07:13.489Z,12.70
2023-05-02T02:09:41.146Z,15.00
2023-05-02T02:12:13.295Z,14.00
2023-05-02T02:14:43.168Z,13.70
2023-05-02T02:17:26.649Z,14.50
2023-05-02T02:19:54.886Z,12.10
2023-05-02T02:22:24.056Z,14.20
2023-05-02T02:24:53.710Z,15.60
2023-05-02T02:27:22.254Z,14.00
2023-05-02T02:29:49.930Z,13.30
2023-05-02T02:32:17.548Z,13.80
2023-05-02T02:34:45.221Z,15.40
2023-05-02T02:37:20.190Z,15.10
2023-05-02T02:40:07.214Z,14.40
2023-05-02T02:42:40.024Z,14.00
2023-05-02T02:45:46.055Z,20.00
2023-05-02T02:48:18.204Z,14.00
2023-05-02T02:50:59.999Z,13.00
2023-05-02T02:54:18.935Z,14.30
2023-05-02T02:57:07.132Z,14.40
2023-05-02T02:59:35.896Z,15.10
2023-05-02T03:02:10.358Z,14.10
2023-05-02T03:04:44.589Z,15.50
2023-05-02T03:07:12.807Z,15.40
2023-05-02T03:09:44.217Z,13.60
2023-05-02T03:12:12.188Z,13.80
2023-05-02T03:14:40.424Z,14.10
2023-05-02T03:17:10.741Z,15.20
2023-05-02T03:19:38.439Z,15.60
2023-05-02T03:22:06.004Z,16.20
2023-05-02T03:24:33.672Z,15.60
2023-05-02T03:27:01.414Z,17.50
2023-05-02T03:29:29.139Z,18.90
2023-05-02T03:31:56.826Z,23.30
2023-05-02T03:34:24.490Z,24.10
2023-05-02T03:36:52.074Z,23.30
2023-05-02T03:39:19.726Z,19.90
2023-05-02T03:41:47.399Z,16.20
2023-05-02T03:44:15.058Z,21.30
2023-05-02T03:46:43.125Z,15.30
2023-05-02T03:49:11.069Z,15.20
2023-05-02T03:51:38.631Z,15.50
2023-05-02T03:54:06.273Z,16.80
2023-05-02T03:56:33.872Z,20.00
2023-05-02T03:59:01.552Z,20.90
2023-05-02T04:01:29.258Z,13.90
2023-05-02T04:03:57.044Z,11.20
2023-05-02T04:06:24.826Z,14.50
2023-05-02T04:08:52.568Z,11.80
2023-05-02T04:11:20.431Z,14.30
2023-05-02T04:13:48.054Z,11.90
2023-05-02T04:16:15.721Z,11.10
2023-05-02T04:18:43.492Z,13.20
2023-05-02T04:21:11.117Z,12.30
2023-05-02T04:23:39.171Z,11.00
2023-05-02T04:26:07.235Z,11.10
2023-05-02T04:28:39.043Z,11.80
2023-05-02T04:31:07.527Z,9.00
2023-05-02T04:33:35.255Z,11.90
2023-05-02T04:36:03.020Z,13.30
2023-05-02T04:38:30.674Z,12.70
2023-05-02T04:40:58.333Z,10.80
2023-05-02T04:43:26.279Z,11.70
2023-05-02T04:45:54.061Z,12.50
2023-05-02T04:48:22.123Z,11.10
2023-05-02T04:50:49.760Z,16.10
2023-05-02T04:53:17.352Z,11.00
2023-05-02T04:55:44.964Z,11.10
2023-05-02T04:58:12.803Z,11.00
2023-05-02T05:00:40.414Z,11.30
2023-05-02T05:03:08.235Z,7.60
2023-05-02T05:05:35.993Z,11.80
2023-05-02T05:08:03.981Z,10.90
2023-05-02T05:10:31.583Z,9.80
2023-05-02T05:12:59.199Z,10.50
2023-05-02T05:15:27.452Z,8.30
2023-05-02T05:17:55.166Z,11.20
2023-05-02T05:20:22.886Z,10.50
2023-05-02T05:22:50.729Z,7.10
2023-05-02T05:25:18.495Z,8.00
2023-05-02T05:27:46.653Z,6.10
2023-05-02T05:30:14.298Z,8.00
2023-05-02T05:32:41.890Z,10.10
2023-05-02T05:35:10.227Z,7.10
2023-05-02T05:37:39.498Z,9.30
2023-05-02T05:40:08.599Z,5.80
2023-05-02T05:42:36.267Z,9.80
2023-05-02T05:45:04.443Z,6.50
2023-05-02T05:47:32.290Z,6.10
2023-05-02T05:50:01.078Z,9.90
2023-05-02T05:52:29.376Z,6.30
2023-05-02T05:54:57.217Z,8.40
2023-05-02T05:57:24.968Z,6.80
2023-05-02T05:59:52.976Z,7.50
2023-05-02T06:02:20.834Z,11.60
2023-05-02T06:04:48.650Z,8.10
2023-05-02T06:07:16.462Z,11.50
2023-05-02T06:09:44.237Z,6.60
2023-05-02T06:12:11.875Z,9.30
2023-05-02T06:14:39.642Z,8.40
2023-05-02T06:17:07.424Z,10.90
2023-05-02T06:19:35.131Z,6.10
2023-05-02T06:22:02.797Z,5.90
2023-05-02T06:24:31.137Z,6.30
2023-05-02T06:26:58.936Z,6.70
2023-05-02T06:29:26.597Z,7.60
2023-05-02T06:31:57.206Z,5.90
2023-05-02T06:34:25.138Z,5.30
2023-05-02T06:36:58.643Z,7.80
2023-05-02T06:39:26.328Z,7.40
2023-05-02T06:41:58.203Z,5.00
2023-05-02T06:44:26.063Z,6.50
2023-05-02T06:46:53.778Z,10.30
2023-05-02T06:49:22.548Z,6.90
2023-05-02T06:51:50.211Z,6.80
2023-05-02T06:54:17.939Z,6.90
2023-05-02T06:56:45.859Z,7.70
2023-05-02T06:59:13.478Z,10.10
2023-05-02T07:01:41.469Z,7.20
2023-05-02T07:04:09.528Z,7.40
2023-05-02T07:06:37.328Z,10.00
2023-05-02T07:09:04.996Z,6.90
2023-05-02T07:11:32.767Z,8.60
2023-05-02T07:14:00.568Z,10.10
2023-05-02T07:16:28.390Z,5.50
2023-05-02T07:18:56.064Z,5.60
2023-05-02T07:21:23.686Z,5.70
2023-05-02T07:23:51.247Z,7.80
2023-05-02T07:26:20.273Z,7.20
2023-05-02T07:28:48.054Z,7.70
2023-05-02T07:31:17.645Z,7.20
2023-05-02T07:33:46.540Z,10.00
2023-05-02T07:36:14.191Z,8.10
2023-05-02T07:38:41.822Z,7.10
2023-05-02T07:41:09.469Z,5.90
2023-05-02T07:43:37.110Z,5.60
2023-05-02T07:46:06.530Z,8.50
2023-05-02T07:48:34.951Z,10.30
2023-05-02T07:51:06.912Z,8.30
2023-05-02T07:53:34.603Z,7.10
2023-05-02T07:56:08.467Z,8.30
2023-05-02T07:58:38.960Z,10.00
2023-05-02T08:01:06.656Z,9.50
2023-05-02T08:03:34.351Z,6.80
2023-05-02T08:06:02.525Z,7.30
2023-05-02T08:08:30.412Z,9.50
2023-05-02T08:10:58.039Z,8.00
2023-05-02T08:13:25.817Z,9.40
2023-05-02T08:15:58.174Z,8.10
2023-05-02T08:18:26.160Z,8.10
2023-05-02T08:20:58.537Z,7.00
2023-05-02T08:25:54.308Z,9.90
2023-05-02T08:28:21.894Z,8.20
2023-05-02T08:30:49.582Z,7.50
2023-05-02T08:33:17.245Z,6.50
2023-05-02T08:35:45.047Z,5.40
2023-05-02T08:38:12.688Z,6.00
2023-05-02T08:40:42.937Z,9.90
2023-05-02T08:43:11.935Z,8.40
2023-05-02T08:45:41.023Z,7.20
2023-05-02T08:48:10.532Z,6.80
2023-05-02T08:50:43.446Z,7.10
2023-05-02T08:53:11.678Z,6.70
2023-05-02T08:55:40.822Z,8.00
2023-05-02T08:58:08.999Z,7.30
2023-05-02T09:00:41.116Z,6.90
2023-05-02T09:03:23.987Z,5.00
2023-05-02T09:05:53.463Z,7.60
2023-05-02T09:08:24.472Z,6.10
2023-05-02T09:10:52.381Z,6.80
2023-05-02T09:13:34.013Z,13.30
2023-05-02T09:16:09.577Z,7.70
2023-05-02T09:18:38.178Z,6.00
2023-05-02T09:21:17.952Z,5.70
2023-05-02T09:23:49.250Z,7.30
2023-05-02T09:26:33.993Z,8.40
2023-05-02T09:29:03.390Z,7.50
2023-05-02T09:31:54.789Z,7.60
2023-05-02T09:34:23.201Z,6.00
2023-05-02T09:36:52.188Z,10.20
2023-05-02T09:39:23.806Z,7.40
2023-05-02T09:41:53.419Z,4.80
2023-05-02T09:44:23.357Z,6.20
2023-05-02T09:46:52.444Z,8.70
2023-05-02T09:49:35.548Z,6.50
2023-05-02T09:52:13.832Z,7.40
2023-05-02T09:54:41.539Z,7.40
2023-05-02T09:57:11.055Z,7.60
2023-05-02T09:59:39.597Z,6.40
2023-05-02T10:02:09.726Z,7.30
2023-05-02T10:04:37.517Z,7.60
2023-05-02T10:07:06.648Z,5.50
2023-05-02T10:09:35.620Z,7.40
2023-05-02T10:12:08.371Z,9.60
2023-05-02T10:14:39.973Z,6.80
2023-05-02T10:17:23.096Z,5.90
2023-05-02T10:19:59.240Z,5.10
2023-05-02T10:22:27.111Z,10.00
2023-05-02T10:24:54.901Z,7.10
2023-05-02T10:27:22.572Z,10.40
2023-05-02T10:29:50.214Z,7.20
2023-05-02T10:32:17.991Z,6.30
2023-05-02T10:34:45.564Z,5.80
2023-05-02T10:37:13.192Z,5.90
2023-05-02T10:39:40.785Z,7.10
2023-05-02T10:42:08.415Z,6.40
2023-05-02T10:44:37.070Z,6.70
2023-05-02T10:47:21.540Z,7.50
2023-05-02T10:52:34.246Z,8.40
2023-05-02T10:55:21.565Z,7.40
2023-05-02T10:58:01.126Z,7.10
2023-05-02T11:00:30.283Z,7.50
2023-05-02T11:02:58.240Z,8.10
2023-05-02T11:05:26.505Z,8.00
2023-05-02T11:08:16.814Z,7.60
2023-05-02T11:13:14.097Z,7.50
2023-05-02T11:15:41.837Z,7.00
2023-05-02T11:18:12.543Z,7.50
2023-05-02T11:20:44.182Z,7.40
2023-05-02T11:23:27.302Z,8.30
2023-05-02T11:25:56.296Z,7.20
2023-05-02T11:28:45.911Z,7.70
2023-05-02T11:31:57.256Z,7.10
2023-05-02T11:34:25.116Z,8.40
2023-05-02T11:36:52.769Z,10.00
2023-05-02T11:39:21.155Z,6.30
2023-05-02T11:41:51.241Z,5.30
2023-05-02T11:44:18.900Z,8.50
2023-05-02T11:46:46.702Z,5.10
2023-05-02T11:49:15.231Z,6.80
2023-05-02T11:51:42.945Z,6.00
2023-05-02T11:54:18.472Z,7.20
2023-05-02T11:56:46.595Z,5.40
2023-05-02T11:59:14.235Z,5.80
2023-05-02T12:01:53.732Z,5.40
2023-05-02T12:04:23.999Z,5.90
2023-05-02T12:06:55.658Z,5.60
2023-05-02T12:09:23.763Z,4.80
2023-05-02T12:11:54.853Z,4.50
2023-05-02T12:14:33.665Z,7.00
2023-05-02T12:17:02.941Z,6.40
2023-05-02T12:19:30.559Z,7.00
2023-05-02T12:21:58.258Z,5.70
2023-05-02T12:24:26.043Z,4.30
2023-05-02T12:27:09.663Z,5.40
2023-05-02T12:29:41.491Z,3.50
2023-05-02T12:32:09.982Z,3.60
2023-05-02T12:34:38.084Z,3.40
2023-05-02T12:37:06.278Z,4.50
2023-05-02T12:39:40.777Z,5.00
2023-05-02T12:42:15.506Z,3.90
2023-05-02T12:44:44.665Z,4.30
2023-05-02T12:47:13.315Z,4.70
2023-05-02T12:50:01.715Z,3.20
2023-05-02T12:52:57.802Z,4.40
2023-05-02T12:55:27.361Z,3.70
2023-05-02T12:58:05.522Z,4.70
2023-05-02T13:00:34.848Z,5.20
2023-05-02T13:03:02.668Z,5.70
2023-05-02T13:05:30.449Z,4.40
2023-05-02T13:07:59.259Z,4.80
2023-05-02T13:10:27.860Z,8.30
2023-05-02T13:12:55.625Z,4.00
2023-05-02T13:15:23.263Z,5.30
2023-05-02T13:17:52.379Z,3.00
2023-05-02T13:20:20.148Z,2.70
2023-05-02T13:22:47.859Z,4.40
2023-05-02T13:25:15.585Z,3.20
2023-05-02T13:27:43.532Z,3.30
2023-05-02T13:30:12.061Z,3.30
2023-05-02T13:32:40.131Z,5.80
2023-05-02T13:35:08.449Z,5.40
2023-05-02T13:37:36.254Z,3.00
2023-05-02T13:40:05.139Z,2.90
2023-05-02T13:42:33.036Z,3.10
2023-05-02T13:45:03.142Z,2.70
2023-05-02T13:47:31.357Z,2.80
2023-05-02T13:49:59.502Z,3.60
2023-05-02T13:52:27.468Z,2.50
2023-05-02T13:54:55.094Z,2.90
2023-05-02T13:57:22.657Z,2.70
2023-05-02T13:59:51.367Z,3.80
2023-05-02T14:02:19.019Z,2.90
2023-05-02T14:04:46.690Z,2.20
2023-05-02T14:07:14.266Z,4.00
2023-05-02T14:09:41.935Z,2.80
2023-05-02T14:12:10.320Z,3.20
2023-05-02T14:14:38.253Z,3.30
2023-05-02T14:17:06.336Z,5.60
2023-05-02T14:19:34.081Z,7.90
2023-05-02T14:22:01.851Z,21.00
2023-05-02T14:24:29.461Z,14.80
2023-05-02T14:26:59.457Z,5.90
2023-05-02T14:29:27.102Z,5.90
2023-05-02T14:31:54.977Z,4.90
2023-05-02T14:34:26.833Z,3.00
2023-05-02T14:36:54.498Z,4.80
2023-05-02T14:39:22.162Z,2.80
2023-05-02T14:41:49.794Z,4.60
2023-05-02T14:44:18.394Z,3.20
2023-05-02T14:46:46.760Z,4.40
2023-05-02T14:49:14.512Z,3.50
2023-05-02T14:51:43.069Z,5.00
2023-05-02T14:54:10.808Z,2.90
2023-05-02T14:56:38.503Z,4.80
2023-05-02T14:59:06.285Z,3.10
2023-05-02T15:01:34.107Z,2.90
2023-05-02T15:06:32.987Z,3.40
2023-05-02T15:09:01.802Z,6.40
2023-05-02T15:11:29.373Z,4.40
2023-05-02T15:13:59.279Z,2.80
2023-05-02T15:16:27.655Z,3.90
2023-05-02T15:18:55.893Z,4.30
2023-05-02T15:21:23.801Z,3.70
2023-05-02T15:23:51.466Z,4.40
2023-05-02T15:26:19.231Z,4.40
2023-05-02T15:28:46.862Z,4.50
2023-05-02T15:31:14.450Z,3.90
2023-05-02T15:33:42.013Z,3.90
2023-05-02T15:36:09.869Z,3.60
2023-05-02T15:38:42.769Z,4.10
2023-05-02T15:41:11.018Z,3.30
2023-05-02T15:43:38.681Z,5.20
2023-05-02T15:46:06.391Z,4.00
2023-05-02T15:48:35.051Z,4.60
2023-05-02T15:51:03.007Z,3.80
2023-05-02T15:53:30.873Z,3.60
2023-05-02T15:55:58.491Z,3.20
2023-05-02T15:58:26.137Z,3.50
2023-05-02T16:00:56.088Z,4.30
2023-05-02T16:03:23.788Z,4.10
2023-05-02T16:05:55.002Z,4.40
2023-05-02T16:08:22.721Z,4.40
2023-05-02T16:10:50.451Z,5.40
2023-05-02T16:13:18.060Z,6.20
2023-05-02T16:15:47.984Z,4.50
2023-05-02T16:18:16.013Z,4.70
2023-05-02T16:20:43.875Z,3.30
2023-05-02T16:23:11.533Z,3.80
2023-05-02T16:25:39.154Z,3.70
2023-05-02T16:28:07.138Z,3.20
2023-05-02T16:30:38.018Z,5.60
2023-05-02T16:33:05.769Z,6.60
2023-05-02T16:35:33.482Z,6.60
2023-05-02T16:38:01.290Z,5.10
2023-05-02T16:40:28.974Z,8.10
2023-05-02T16:42:56.895Z,15.80
2023-05-02T16:45:24.627Z,16.40
2023-05-02T16:47:52.306Z,20.10
2023-05-02T16:50:20.071Z,16.60
2023-05-02T16:52:47.772Z,14.70
2023-05-02T16:55:16.640Z,14.80
2023-05-02T16:57:44.271Z,9.80
2023-05-02T17:00:14.835Z,6.90
2023-05-02T17:02:45.711Z,9.80
2023-05-02T17:05:13.724Z,18.10
2023-05-02T17:07:41.321Z,11.50
2023-05-02T17:10:09.725Z,8.10
2023-05-02T17:12:37.342Z,14.70
2023-05-02T17:15:05.750Z,33.30
2023-05-02T17:17:33.386Z,16.40
2023-05-02T17:20:01.313Z,9.50
2023-05-02T17:22:29.241Z,15.90
2023-05-02T17:24:56.854Z,19.10
2023-05-02T17:27:24.462Z,20.30
2023-05-02T17:29:52.279Z,13.70
2023-05-02T17:32:19.874Z,14.10
2023-05-02T17:34:47.504Z,13.10
2023-05-02T17:37:15.699Z,22.40
2023-05-02T17:39:43.323Z,48.10
2023-05-02T17:42:11.095Z,63.20
2023-05-02T17:44:38.706Z,28.80
2023-05-02T17:47:06.457Z,45.00
2023-05-02T17:49:35.536Z,25.00
2023-05-02T17:52:05.112Z,15.30
2023-05-02T17:54:32.735Z,62.20
2023-05-02T17:57:00.410Z,77.70
2023-05-02T17:59:28.260Z,43.70
2023-05-02T18:01:56.433Z,21.10
2023-05-02T18:04:24.805Z,16.60
2023-05-02T18:06:52.593Z,15.90
2023-05-02T18:09:20.343Z,51.60
2023-05-02T18:11:48.466Z,42.10
2023-05-02T18:14:16.082Z,38.40
2023-05-02T18:16:48.413Z,27.80
2023-05-02T18:19:16.151Z,20.50
2023-05-02T18:21:44.574Z,25.80
2023-05-02T18:24:12.366Z,49.00
2023-05-02T18:26:40.554Z,88.70
2023-05-02T18:29:09.306Z,59.60
2023-05-02T18:31:40.433Z,58.00
2023-05-02T18:34:08.317Z,45.70
2023-05-02T18:36:37.115Z,27.20
2023-05-02T18:39:04.756Z,31.60
2023-05-02T18:41:32.450Z,30.20
2023-05-02T18:44:00.752Z,28.60
2023-05-02T18:46:28.827Z,26.90
2023-05-02T18:48:57.156Z,29.10
2023-05-02T18:51:24.797Z,31.40
2023-05-02T18:53:52.455Z,22.50
2023-05-02T18:56:20.053Z,19.40
2023-05-02T18:58:49.063Z,23.60
2023-05-02T19:01:16.947Z,29.80
2023-05-02T19:03:44.757Z,33.50
2023-05-02T19:06:13.412Z,23.00
2023-05-02T19:08:41.331Z,33.00
2023-05-02T19:11:09.365Z,25.60
2023-05-02T19:13:37.084Z,28.50
2023-05-02T19:16:05.598Z,24.50
2023-05-02T19:18:35.172Z,25.50
2023-05-02T19:21:13.168Z,26.50
2023-05-02T19:23:41.854Z,29.10
2023-05-02T19:26:16.721Z,27.10
2023-05-02T19:28:44.611Z,29.70
2023-05-02T19:31:13.167Z,36.50
2023-05-02T19:33:41.110Z,97.50
2023-05-02T19:36:08.830Z,73.40
2023-05-02T19:38:36.543Z,66.10
2023-05-02T19:41:04.210Z,90.90
2023-05-02T19:43:31.946Z,125.30
2023-05-02T19:45:59.553Z,44.20
2023-05-02T19:48:27.801Z,30.80
2023-05-02T19:50:55.431Z,30.50
2023-05-02T19:53:23.290Z,30.10
2023-05-02T19:55:50.929Z,28.60
2023-05-02T19:58:18.538Z,31.60
2023-05-02T20:00:49.266Z,30.80
2023-05-02T20:03:17.066Z,47.50
2023-05-02T20:05:44.854Z,99.20
2023-05-02T20:08:12.510Z,84.50
2023-05-02T20:10:40.177Z,42.80
2023-05-02T20:13:07.769Z,28.60
2023-05-02T20:15:35.528Z,48.90
2023-05-02T20:18:03.380Z,33.80
2023-05-02T20:20:31.099Z,29.90
2023-05-02T20:22:59.251Z,26.90
2023-05-02T20:25:26.913Z,27.80
2023-05-02T20:27:54.555Z,27.00
2023-05-02T20:30:22.233Z,23.70
2023-05-02T20:32:49.843Z,25.70
2023-05-02T20:35:18.410Z,25.20
2023-05-02T20:37:46.874Z,33.50
2023-05-02T20:40:14.599Z,29.70
2023-05-02T20:42:43.949Z,26.40
2023-05-02T20:45:12.640Z,24.20
2023-05-02T20:47:40.382Z,27.30
2023-05-02T20:50:09.371Z,28.00
2023-05-02T20:52:38.999Z,30.00
2023-05-02T20:55:06.943Z,30.00
2023-05-02T20:57:34.713Z,31.20
2023-05-02T21:00:03.729Z,28.00
2023-05-02T21:02:31.663Z,25.90
2023-05-02T21:04:59.322Z,24.10
2023-05-02T21:07:27.103Z,20.00
2023-05-02T21:09:54.719Z,18.90
2023-05-02T21:12:22.376Z,17.80
2023-05-02T21:14:50.108Z,19.20
2023-05-02T21:17:17.785Z,15.50
2023-05-02T21:19:45.444Z,16.30
2023-05-02T21:22:13.095Z,18.20
2023-05-02T21:24:40.699Z,15.90
2023-05-02T21:27:08.457Z,15.00
2023-05-02T21:29:36.228Z,15.90
2023-05-02T21:32:04.653Z,17.40
2023-05-02T21:34:32.511Z,17.00
2023-05-02T21:37:00.681Z,17.10
2023-05-02T21:39:28.332Z,15.20
2023-05-02T21:41:56.421Z,14.50
2023-05-02T21:44:24.091Z,15.10
2023-05-02T21:46:51.778Z,11.80
2023-05-02T21:49:19.558Z,14.90
2023-05-02T21:51:47.204Z,13.50
2023-05-02T21:54:14.785Z,16.70
2023-05-02T21:56:42.994Z,15.70
2023-05-02T21:59:10.630Z,17.30
2023-05-02T22:01:38.208Z,16.40
2023-05-02T22:04:06.504Z,19.50
2023-05-02T22:06:34.642Z,19.80
2023-05-02T22:09:02.426Z,17.30
2023-05-02T22:11:31.575Z,21.60
2023-05-02T22:13:59.164Z,19.30
2023-05-02T22:16:26.841Z,20.80
2023-05-02T22:18:54.543Z,17.00
2023-05-02T22:21:22.408Z,17.20
2023-05-02T22:23:50.036Z,17.70
2023-05-02T22:26:17.663Z,20.00
2023-05-02T22:28:45.404Z,17.70
2023-05-02T22:31:14.188Z,15.10
2023-05-02T22:33:42.594Z,23.60
2023-05-02T22:36:10.246Z,21.90
2023-05-02T22:38:39.942Z,20.70
2023-05-02T22:41:07.792Z,14.20
2023-05-02T22:43:35.776Z,16.60
2023-05-02T22:46:03.565Z,16.90
2023-05-02T22:48:31.204Z,16.80
2023-05-02T22:50:58.799Z,16.70
2023-05-02T22:53:26.481Z,16.40
2023-05-02T22:55:54.089Z,15.80
2023-05-02T22:58:21.669Z,17.50
2023-05-02T23:00:49.324Z,16.50
2023-05-02T23:03:17.022Z,17.30
2023-05-02T23:05:45.018Z,14.20
2023-05-02T23:08:12.699Z,14.60
2023-05-02T23:10:40.573Z,14.50
2023-05-02T23:13:08.206Z,14.80
2023-05-02T23:15:36.447Z,18.30
2023-05-02T23:18:04.307Z,12.60
2023-05-02T23:20:33.482Z,14.00
2023-05-02T23:23:01.178Z,13.30
2023-05-02T23:25:28.769Z,16.60
2023-05-02T23:27:56.452Z,13.50
2023-05-02T23:30:24.642Z,14.40
2023-05-02T23:32:52.414Z,12.60
2023-05-02T23:35:20.495Z,13.60
2023-05-02T23:37:48.414Z,13.80
2023-05-02T23:40:16.104Z,16.30
2023-05-02T23:42:43.762Z,14.30
2023-05-02T23:45:11.826Z,12.60
2023-05-02T23:47:39.438Z,14.50
2023-05-02T23:50:07.847Z,16.50
2023-05-02T23:52:35.706Z,18.70
2023-05-02T23:55:03.457Z,16.40
2023-05-02T23:57:31.168Z,18.20
2023-05-02T23:59:58.825Z,20.70
